createdAt,value
2022-10-18T00:01:40.751Z,75.07
2022-10-18T00:04:09.014Z,74.71
2022-10-18T00:06:39.836Z,74.75
2022-10-18T00:09:10.874Z,75.68
2022-10-18T00:11:38.982Z,75.96
2022-10-18T00:14:07.318Z,75.64
2022-10-18T00:16:35.467Z,76.26
2022-10-18T00:19:03.742Z,75.43
2022-10-18T00:21:31.851Z,75.43
2022-10-18T00:24:00.739Z,76.17
2022-10-18T00:26:29.712Z,75.13
2022-10-18T00:29:00.118Z,75.47
2022-10-18T00:31:29.927Z,75.38
2022-10-18T00:33:59.769Z,75.59
2022-10-18T00:36:29.290Z,75.49
2022-10-18T00:38:57.485Z,75.74
2022-10-18T00:41:26.781Z,75.84
2022-10-18T00:43:56.686Z,75.50
2022-10-18T00:46:25.791Z,76.60
2022-10-18T00:48:56.411Z,76.83
2022-10-18T00:51:27.715Z,76.61
2022-10-18T00:53:56.144Z,77.49
2022-10-18T00:56:24.572Z,77.17
2022-10-18T00:58:52.821Z,76.75
2022-10-18T01:01:24.484Z,77.05
2022-10-18T01:03:56.198Z,77.06
2022-10-18T01:06:24.757Z,77.35
2022-10-18T01:09:11.406Z,76.75
2022-10-18T01:11:58.943Z,77.59
2022-10-18T01:14:59.259Z,77.94
2022-10-18T01:17:39.278Z,77.37
2022-10-18T01:20:30.768Z,76.82
2022-10-18T01:23:15.905Z,76.54
2022-10-18T01:25:43.966Z,76.56
2022-10-18T01:28:27.203Z,77.61
2022-10-18T01:31:00.307Z,78.02
2022-10-18T01:33:28.518Z,77.80
2022-10-18T01:36:05.889Z,78.85
2022-10-18T01:38:35.440Z,78.14
2022-10-18T01:41:03.953Z,77.39
2022-10-18T01:43:33.077Z,77.59
2022-10-18T01:46:01.377Z,78.48
2022-10-18T01:48:30.273Z,78.02
2022-10-18T01:50:58.424Z,78.17
2022-10-18T01:53:29.051Z,78.28
2022-10-18T01:56:04.745Z,78.14
2022-10-18T01:58:39.164Z,78.08
2022-10-18T02:03:46.967Z,78.25
2022-10-18T02:06:15.058Z,78.04
2022-10-18T02:08:47.124Z,78.71
2022-10-18T02:11:16.181Z,78.67
2022-10-18T02:13:52.186Z,78.95
2022-10-18T02:16:23.963Z,78.18
2022-10-18T02:19:01.494Z,78.51
2022-10-18T02:21:29.891Z,78.86
2022-10-18T02:23:59.277Z,78.17
2022-10-18T02:26:27.417Z,78.20
2022-10-18T02:28:55.509Z,78.60
2022-10-18T02:31:50.067Z,78.58
2022-10-18T02:34:27.973Z,78.71
2022-10-18T02:36:59.978Z,79.27
2022-10-18T02:39:40.589Z,78.11
2022-10-18T02:42:10.129Z,78.02
2022-10-18T02:44:39.031Z,78.57
2022-10-18T02:47:07.873Z,78.65
2022-10-18T02:49:36.087Z,78.66
2022-10-18T02:52:04.309Z,78.46
2022-10-18T02:54:32.542Z,79.00
2022-10-18T02:57:00.674Z,79.22
2022-10-18T02:59:28.864Z,79.35
2022-10-18T03:01:57.045Z,79.15
2022-10-18T03:04:25.239Z,78.94
2022-10-18T03:06:53.375Z,78.94
2022-10-18T03:09:21.480Z,79.22
2022-10-18T03:11:49.525Z,79.16
2022-10-18T03:14:17.671Z,79.51
2022-10-18T03:16:45.743Z,78.92
2022-10-18T03:19:13.844Z,79.52
2022-10-18T03:21:41.985Z,79.49
2022-10-18T03:24:10.104Z,79.46
2022-10-18T03:26:38.234Z,79.28
2022-10-18T03:29:06.390Z,79.70
2022-10-18T03:31:34.606Z,79.23
2022-10-18T03:34:02.795Z,79.21
2022-10-18T03:36:31.035Z,80.01
2022-10-18T03:38:59.138Z,79.74
2022-10-18T03:41:27.331Z,80.23
2022-10-18T03:43:55.413Z,79.81
2022-10-18T03:46:23.542Z,80.47
2022-10-18T03:48:51.620Z,80.08
2022-10-18T03:51:19.678Z,79.14
2022-10-18T03:53:47.777Z,80.34
2022-10-18T03:56:15.936Z,79.75
2022-10-18T03:58:44.051Z,80.42
2022-10-18T04:01:12.303Z,80.12
2022-10-18T04:03:40.432Z,79.94
2022-10-18T04:06:10.105Z,79.79
2022-10-18T04:08:38.229Z,80.00
2022-10-18T04:11:08.536Z,79.82
2022-10-18T04:13:36.767Z,79.74
2022-10-18T04:16:04.915Z,79.40
2022-10-18T04:18:33.216Z,79.22
2022-10-18T04:21:01.364Z,79.08
2022-10-18T04:23:29.881Z,79.96
2022-10-18T04:25:59.007Z,80.55
2022-10-18T04:28:27.173Z,80.79
2022-10-18T04:30:55.375Z,79.86
2022-10-18T04:33:23.647Z,80.61
2022-10-18T04:35:52.336Z,80.07
2022-10-18T04:38:20.434Z,79.50
2022-10-18T04:40:48.590Z,80.47
2022-10-18T04:43:16.811Z,79.97
2022-10-18T04:45:45.557Z,80.39
2022-10-18T04:48:23.236Z,80.12
2022-10-18T04:50:51.590Z,81.01
2022-10-18T04:53:19.941Z,80.77
2022-10-18T04:55:49.105Z,80.76
2022-10-18T04:58:17.614Z,81.48
2022-10-18T05:00:47.817Z,80.89
2022-10-18T05:03:16.157Z,80.79
2022-10-18T05:06:03.278Z,80.22
2022-10-18T05:08:33.076Z,81.44
2022-10-18T05:11:01.684Z,80.80
2022-10-18T05:13:30.079Z,81.74
2022-10-18T05:16:00.371Z,81.24
2022-10-18T05:18:28.654Z,81.17
2022-10-18T05:20:56.813Z,80.57
2022-10-18T05:23:25.153Z,81.05
2022-10-18T05:25:53.652Z,81.07
2022-10-18T05:28:40.052Z,81.59
2022-10-18T05:31:09.942Z,81.49
2022-10-18T05:33:38.350Z,80.06
2022-10-18T05:36:06.747Z,79.53
2022-10-18T05:41:08.025Z,78.28
2022-10-18T05:43:36.125Z,77.70
2022-10-18T05:46:07.199Z,76.77
2022-10-18T05:48:37.431Z,76.14
2022-10-18T05:51:05.611Z,75.72
2022-10-18T05:53:37.777Z,75.52
2022-10-18T05:56:06.874Z,74.50
2022-10-18T05:58:35.350Z,73.72
2022-10-18T06:01:04.137Z,73.39
2022-10-18T06:03:32.729Z,73.77
2022-10-18T06:06:05.407Z,73.95
2022-10-18T06:08:34.187Z,72.61
2022-10-18T06:11:16.335Z,72.96
2022-10-18T06:13:45.360Z,72.55
2022-10-18T06:16:14.306Z,72.04
2022-10-18T06:18:42.954Z,71.56
2022-10-18T06:21:11.084Z,71.27
2022-10-18T06:23:39.201Z,70.64
2022-10-18T06:26:08.387Z,71.01
2022-10-18T06:28:37.132Z,70.39
2022-10-18T06:31:06.101Z,70.22
2022-10-18T06:33:35.410Z,70.29
2022-10-18T06:36:05.455Z,70.00
2022-10-18T06:38:33.978Z,69.45
2022-10-18T06:41:02.499Z,68.95
2022-10-18T06:43:30.650Z,69.17
2022-10-18T06:46:00.787Z,67.22
2022-10-18T06:48:29.258Z,66.56
2022-10-18T06:51:01.625Z,64.34
2022-10-18T06:53:31.439Z,64.39
2022-10-18T06:56:04.110Z,63.13
2022-10-18T06:58:32.540Z,63.55
2022-10-18T07:01:05.228Z,61.57
2022-10-18T07:03:34.980Z,60.34
2022-10-18T07:06:04.258Z,60.58
2022-10-18T07:08:32.730Z,59.69
2022-10-18T07:11:00.842Z,58.50
2022-10-18T07:13:32.817Z,58.10
2022-10-18T07:16:06.490Z,57.27
2022-10-18T07:18:35.788Z,56.13
2022-10-18T07:21:05.236Z,56.61
2022-10-18T07:23:34.326Z,55.64
2022-10-18T07:26:03.413Z,55.20
2022-10-18T07:28:31.656Z,55.14
2022-10-18T07:31:06.079Z,53.66
2022-10-18T07:33:40.097Z,52.99
2022-10-18T07:36:08.864Z,52.06
2022-10-18T07:38:37.202Z,53.41
2022-10-18T07:41:06.946Z,53.05
2022-10-18T07:43:35.671Z,51.93
2022-10-18T07:46:05.042Z,51.12
2022-10-18T07:48:33.139Z,51.22
2022-10-18T07:51:01.808Z,50.47
2022-10-18T07:53:30.118Z,50.04
2022-10-18T07:56:04.560Z,50.61
2022-10-18T07:58:35.417Z,48.45
2022-10-18T08:01:04.651Z,49.00
2022-10-18T08:03:32.768Z,49.27
2022-10-18T08:06:01.176Z,48.69
2022-10-18T08:08:29.893Z,48.69
2022-10-18T08:11:05.361Z,48.34
2022-10-18T08:13:33.520Z,47.79
2022-10-18T08:16:02.637Z,47.80
2022-10-18T08:18:31.401Z,48.18
2022-10-18T08:21:00.490Z,48.43
2022-10-18T08:23:28.672Z,48.29
2022-10-18T08:25:56.947Z,48.69
2022-10-18T08:28:25.359Z,49.08
2022-10-18T08:30:53.480Z,48.98
2022-10-18T08:33:21.662Z,48.84
2022-10-18T08:36:00.064Z,48.41
2022-10-18T08:38:31.743Z,48.19
2022-10-18T08:41:19.230Z,47.70
2022-10-18T08:44:06.336Z,46.52
2022-10-18T08:46:37.301Z,46.79
2022-10-18T08:49:06.475Z,45.92
2022-10-18T08:51:44.632Z,45.97
2022-10-18T08:54:14.209Z,46.13
2022-10-18T08:56:45.780Z,45.72
2022-10-18T08:59:14.031Z,44.88
2022-10-18T09:01:57.298Z,44.87
2022-10-18T09:04:28.160Z,45.21
2022-10-18T09:07:02.327Z,43.46
2022-10-18T09:09:33.834Z,43.50
2022-10-18T09:12:07.842Z,43.98
2022-10-18T09:15:01.928Z,44.54
2022-10-18T09:17:30.041Z,44.88
2022-10-18T09:22:53.144Z,45.15
2022-10-18T09:25:35.984Z,45.66
2022-10-18T09:28:04.030Z,44.78
2022-10-18T09:30:44.770Z,45.56
2022-10-18T09:33:24.085Z,45.30
2022-10-18T09:36:01.319Z,45.48
2022-10-18T09:38:31.727Z,46.54
2022-10-18T09:41:08.322Z,45.68
2022-10-18T09:43:48.356Z,45.51
2022-10-18T09:46:19.428Z,45.84
2022-10-18T09:48:53.371Z,46.21
2022-10-18T09:51:23.621Z,46.50
2022-10-18T09:53:51.724Z,45.37
2022-10-18T09:56:29.669Z,45.49
2022-10-18T09:58:57.772Z,46.13
2022-10-18T10:01:26.908Z,44.85
2022-10-18T10:03:55.231Z,44.81
2022-10-18T10:06:25.358Z,45.15
2022-10-18T10:09:07.433Z,45.13
2022-10-18T10:11:40.520Z,45.12
2022-10-18T10:14:09.105Z,44.89
2022-10-18T10:16:53.986Z,44.64
2022-10-18T10:19:25.191Z,45.85
2022-10-18T10:22:02.423Z,46.16
2022-10-18T10:24:35.572Z,46.08
2022-10-18T10:27:06.023Z,46.12
2022-10-18T10:29:46.610Z,45.39
2022-10-18T10:32:15.983Z,45.77
2022-10-18T10:34:44.981Z,45.44
2022-10-18T10:37:25.729Z,46.17
2022-10-18T10:40:18.218Z,46.22
2022-10-18T10:43:04.235Z,45.93
2022-10-18T10:45:58.478Z,45.87
2022-10-18T10:48:32.368Z,46.11
2022-10-18T10:51:09.015Z,43.72
2022-10-18T10:53:40.146Z,43.36
2022-10-18T10:56:20.801Z,42.60
2022-10-18T10:58:49.186Z,43.04
2022-10-18T11:01:19.372Z,43.41
2022-10-18T11:03:49.191Z,44.21
2022-10-18T11:06:31.923Z,43.42
2022-10-18T11:09:03.413Z,43.86
2022-10-18T11:11:35.218Z,44.35
2022-10-18T11:14:25.360Z,44.68
2022-10-18T11:17:13.477Z,45.01
2022-10-18T11:19:50.326Z,43.57
2022-10-18T11:22:21.819Z,44.15
2022-10-18T11:24:49.909Z,44.01
2022-10-18T11:27:18.025Z,44.94
2022-10-18T11:30:06.356Z,44.82
2022-10-18T11:32:40.160Z,44.42
2022-10-18T11:35:26.659Z,44.42
2022-10-18T11:37:59.915Z,44.45
2022-10-18T11:40:48.264Z,43.26
2022-10-18T11:43:21.865Z,43.85
2022-10-18T11:45:54.975Z,43.25
2022-10-18T11:48:25.868Z,41.94
2022-10-18T11:51:06.305Z,41.98
2022-10-18T11:53:34.391Z,41.26
2022-10-18T11:56:05.547Z,41.81
2022-10-18T11:58:39.558Z,41.59
2022-10-18T12:01:43.671Z,41.67
2022-10-18T12:04:18.303Z,41.70
2022-10-18T12:06:51.102Z,41.92
2022-10-18T12:09:25.032Z,41.18
2022-10-18T12:11:58.493Z,40.32
2022-10-18T12:14:29.532Z,39.84
2022-10-18T12:17:28.103Z,39.94
2022-10-18T12:19:50.020Z,39.96
2022-10-18T12:22:28.655Z,40.55
2022-10-18T12:24:56.811Z,40.80
2022-10-18T12:27:34.374Z,40.79
2022-10-18T12:30:06.794Z,40.95
2022-10-18T12:32:36.779Z,40.34
2022-10-18T12:35:13.028Z,40.64
2022-10-18T12:37:41.137Z,39.41
2022-10-18T12:40:23.650Z,39.12
2022-10-18T12:42:53.177Z,40.40
2022-10-18T12:45:33.564Z,40.71
2022-10-18T12:48:21.796Z,40.72
2022-10-18T12:50:57.407Z,39.76
2022-10-18T12:53:29.870Z,39.68
2022-10-18T12:56:19.852Z,40.27
2022-10-18T12:58:49.999Z,40.52
2022-10-18T13:01:18.149Z,40.40
2022-10-18T13:03:56.643Z,40.09
2022-10-18T13:06:24.919Z,40.29
2022-10-18T13:09:28.547Z,40.00
2022-10-18T13:12:16.921Z,39.68
2022-10-18T13:15:24.162Z,38.61
2022-10-18T13:17:55.131Z,40.40
2022-10-18T13:20:26.665Z,40.47
2022-10-18T13:23:01.371Z,40.73
2022-10-18T13:25:40.191Z,40.51
2022-10-18T13:28:20.464Z,40.62
2022-10-18T13:31:07.199Z,41.21
2022-10-18T13:33:39.884Z,41.20
2022-10-18T13:36:22.577Z,41.48
2022-10-18T13:38:55.831Z,40.57
2022-10-18T13:44:11.266Z,41.18
2022-10-18T13:46:39.363Z,41.99
2022-10-18T13:49:26.022Z,42.42
2022-10-18T13:52:11.408Z,41.52
2022-10-18T13:54:51.673Z,42.67
2022-10-18T13:57:26.817Z,42.46
2022-10-18T13:59:54.910Z,42.98
2022-10-18T14:02:49.956Z,42.71
2022-10-18T14:05:26.663Z,43.06
2022-10-18T14:08:00.356Z,44.15
2022-10-18T14:11:01.757Z,44.67
2022-10-18T14:13:39.093Z,44.14
2022-10-18T14:16:17.622Z,44.45
2022-10-18T14:18:50.216Z,44.37
2022-10-18T14:21:30.260Z,44.79
2022-10-18T14:23:59.390Z,45.27
2022-10-18T14:26:29.644Z,45.53
2022-10-18T14:29:05.828Z,46.62
2022-10-18T14:31:34.873Z,46.38
2022-10-18T14:34:03.107Z,48.45
2022-10-18T14:36:36.899Z,49.28
2022-10-18T14:39:06.573Z,49.47
2022-10-18T14:41:36.128Z,48.76
2022-10-18T14:44:16.769Z,49.14
2022-10-18T14:47:04.624Z,50.49
2022-10-18T14:49:32.781Z,50.69
2022-10-18T14:52:01.720Z,50.74
2022-10-18T14:54:34.042Z,51.30
2022-10-18T14:57:03.599Z,51.25
2022-10-18T14:59:40.744Z,51.38
2022-10-18T15:02:16.942Z,50.41
2022-10-18T15:04:45.928Z,50.96
2022-10-18T15:07:15.933Z,50.70
2022-10-18T15:09:44.848Z,50.75
2022-10-18T15:12:14.508Z,51.07
2022-10-18T15:14:43.848Z,51.69
2022-10-18T15:17:18.089Z,51.93
2022-10-18T15:19:59.369Z,52.77
2022-10-18T15:22:32.626Z,52.43
2022-10-18T15:25:14.659Z,52.70
2022-10-18T15:28:01.593Z,52.95
2022-10-18T15:30:36.719Z,53.29
2022-10-18T15:33:09.827Z,53.30
2022-10-18T15:35:39.265Z,53.84
2022-10-18T15:38:14.704Z,54.26
2022-10-18T15:40:43.382Z,54.67
2022-10-18T15:43:23.868Z,54.87
2022-10-18T15:45:53.895Z,55.24
2022-10-18T15:48:24.006Z,55.52
2022-10-18T15:50:56.879Z,55.96
2022-10-18T15:53:31.315Z,56.36
2022-10-18T15:56:05.406Z,56.50
2022-10-18T15:58:36.667Z,56.83
2022-10-18T16:01:05.512Z,57.22
2022-10-18T16:03:36.958Z,57.51
2022-10-18T16:06:09.491Z,57.49
2022-10-18T16:08:41.220Z,57.63
2022-10-18T16:11:14.645Z,57.83
2022-10-18T16:13:43.459Z,58.41
2022-10-18T16:16:16.329Z,58.71
2022-10-18T16:18:44.872Z,58.85
2022-10-18T16:21:20.862Z,58.74
2022-10-18T16:23:49.690Z,58.72
2022-10-18T16:26:18.959Z,58.69
2022-10-18T16:28:47.586Z,59.16
2022-10-18T16:31:17.556Z,59.38
2022-10-18T16:33:45.815Z,59.67
2022-10-18T16:36:15.270Z,59.61
2022-10-18T16:38:44.041Z,59.49
2022-10-18T16:41:13.469Z,59.55
2022-10-18T16:43:42.611Z,59.76
2022-10-18T16:46:19.556Z,60.35
2022-10-18T16:48:51.205Z,60.36
2022-10-18T16:51:19.837Z,60.67
2022-10-18T16:53:49.976Z,61.42
2022-10-18T16:56:21.380Z,61.88
2022-10-18T16:58:50.505Z,61.04
2022-10-18T17:01:22.366Z,61.11
2022-10-18T17:03:53.599Z,61.35
2022-10-18T17:06:21.819Z,61.94
2022-10-18T17:08:50.525Z,62.67
2022-10-18T17:11:19.866Z,63.83
2022-10-18T17:13:48.161Z,64.00
2022-10-18T17:16:22.841Z,64.26
2022-10-18T17:18:51.404Z,63.97
2022-10-18T17:21:26.752Z,63.82
2022-10-18T17:24:00.656Z,63.22
2022-10-18T17:26:29.983Z,64.18
2022-10-18T17:29:00.705Z,64.57
2022-10-18T17:31:32.800Z,63.59
2022-10-18T17:34:04.428Z,64.41
2022-10-18T17:36:36.342Z,64.33
2022-10-18T17:39:05.165Z,65.14
2022-10-18T17:41:38.475Z,65.37
2022-10-18T17:44:08.483Z,64.42
2022-10-18T17:46:36.659Z,66.19
2022-10-18T17:49:04.871Z,65.32
2022-10-18T17:51:32.991Z,65.20
2022-10-18T17:54:01.137Z,65.75
2022-10-18T17:56:33.456Z,64.88
2022-10-18T17:59:01.964Z,64.94
2022-10-18T18:01:30.170Z,65.41
2022-10-18T18:03:59.294Z,66.04
2022-10-18T18:06:33.673Z,66.20
2022-10-18T18:09:05.101Z,67.48
2022-10-18T18:11:33.375Z,67.62
2022-10-18T18:14:01.785Z,67.69
2022-10-18T18:16:30.390Z,67.36
2022-10-18T18:18:58.626Z,67.07
2022-10-18T18:21:27.423Z,67.55
2022-10-18T18:23:56.019Z,67.26
2022-10-18T18:26:24.746Z,67.88
2022-10-18T18:28:53.568Z,67.17
2022-10-18T18:31:23.817Z,68.03
2022-10-18T18:33:52.799Z,67.91
2022-10-18T18:36:20.929Z,68.37
2022-10-18T18:38:53.027Z,67.97
2022-10-18T18:41:24.884Z,69.15
2022-10-18T18:43:54.567Z,68.92
2022-10-18T18:46:23.083Z,69.17
2022-10-18T18:48:51.408Z,69.74
2022-10-18T18:51:20.345Z,68.96
2022-10-18T18:53:48.883Z,68.96
2022-10-18T18:56:18.521Z,68.34
2022-10-18T18:58:47.280Z,69.40
2022-10-18T19:01:17.384Z,70.10
2022-10-18T19:03:46.764Z,70.05
2022-10-18T19:06:19.041Z,69.75
2022-10-18T19:08:47.281Z,69.86
2022-10-18T19:11:17.123Z,69.92
2022-10-18T19:13:45.356Z,70.07
2022-10-18T19:16:29.732Z,70.01
2022-10-18T19:18:57.893Z,71.05
2022-10-18T19:21:27.904Z,71.35
2022-10-18T19:23:56.707Z,71.19
2022-10-18T19:26:29.898Z,73.09
2022-10-18T19:29:02.435Z,73.23
2022-10-18T19:31:30.652Z,73.92
2022-10-18T19:33:59.775Z,74.15
2022-10-18T19:36:28.890Z,75.16
2022-10-18T19:38:58.123Z,75.43
2022-10-18T19:41:28.683Z,75.48
2022-10-18T19:43:58.170Z,75.63
2022-10-18T19:46:26.457Z,75.04
2022-10-18T19:48:54.518Z,74.99
2022-10-18T19:51:27.730Z,75.50
2022-10-18T19:53:58.470Z,75.54
2022-10-18T19:56:31.618Z,76.29
2022-10-18T19:59:07.149Z,75.83
2022-10-18T20:01:35.307Z,76.01
2022-10-18T20:04:07.044Z,76.43
2022-10-18T20:06:38.715Z,77.13
2022-10-18T20:09:12.412Z,77.76
2022-10-18T20:11:44.929Z,77.71
2022-10-18T20:14:13.064Z,77.45
2022-10-18T20:16:43.924Z,77.46
2022-10-18T20:19:12.119Z,77.82
2022-10-18T20:21:40.445Z,77.80
2022-10-18T20:24:09.595Z,77.72
2022-10-18T20:26:37.951Z,77.62
2022-10-18T20:29:07.608Z,77.93
2022-10-18T20:31:39.152Z,78.59
2022-10-18T20:34:08.924Z,79.10
2022-10-18T20:36:39.818Z,79.05
2022-10-18T20:39:08.002Z,79.15
2022-10-18T20:41:38.259Z,79.28
2022-10-18T20:44:08.599Z,79.57
2022-10-18T20:46:38.717Z,79.63
2022-10-18T20:49:11.074Z,79.79
2022-10-18T20:51:42.710Z,79.92
2022-10-18T20:54:11.604Z,79.78
2022-10-18T20:56:39.925Z,79.59
2022-10-18T20:59:12.128Z,79.50
2022-10-18T21:01:40.331Z,79.00
2022-10-18T21:04:09.434Z,79.01
2022-10-18T21:06:40.361Z,79.04
2022-10-18T21:09:16.601Z,78.97
2022-10-18T21:11:46.190Z,78.91
2022-10-18T21:14:15.594Z,78.79
2022-10-18T21:16:44.062Z,78.86
2022-10-18T21:19:13.805Z,78.96
2022-10-18T21:21:44.044Z,79.10
2022-10-18T21:24:12.603Z,79.06
2022-10-18T21:26:41.023Z,79.31
2022-10-18T21:29:10.459Z,79.65
2022-10-18T21:31:39.988Z,79.50
2022-10-18T21:34:13.008Z,79.78
2022-10-18T21:36:41.922Z,79.87
2022-10-18T21:39:17.909Z,79.81
2022-10-18T21:41:46.393Z,79.85
2022-10-18T21:44:15.015Z,79.61
2022-10-18T21:46:43.693Z,79.35
2022-10-18T21:49:11.846Z,78.93
2022-10-18T21:51:40.062Z,78.54
2022-10-18T21:54:10.677Z,78.19
2022-10-18T21:56:38.765Z,78.08
2022-10-18T21:59:07.341Z,77.79
2022-10-18T22:01:36.368Z,77.34
2022-10-18T22:04:06.968Z,77.22
2022-10-18T22:06:36.390Z,77.02
2022-10-18T22:09:07.257Z,76.83
2022-10-18T22:11:37.175Z,76.75
2022-10-18T22:14:05.635Z,76.48
2022-10-18T22:16:33.691Z,76.52
2022-10-18T22:19:03.144Z,76.42
2022-10-18T22:21:31.852Z,76.36
2022-10-18T22:24:00.362Z,76.35
2022-10-18T22:26:34.534Z,76.09
2022-10-18T22:29:19.014Z,76.20
2022-10-18T22:31:48.647Z,76.15
2022-10-18T22:34:21.148Z,76.13
2022-10-18T22:36:49.482Z,76.00
2022-10-18T22:39:17.986Z,76.05
2022-10-18T22:41:46.759Z,76.06
2022-10-18T22:44:15.083Z,75.97
2022-10-18T22:46:43.239Z,75.79
2022-10-18T22:49:11.804Z,75.93
2022-10-18T22:51:40.175Z,75.96
2022-10-18T22:54:09.055Z,76.09
2022-10-18T22:56:37.321Z,75.81
2022-10-18T22:59:05.617Z,75.70
2022-10-18T23:01:33.773Z,75.44
2022-10-18T23:04:02.280Z,75.15
2022-10-18T23:06:31.496Z,75.07
2022-10-18T23:09:00.693Z,75.00
2022-10-18T23:11:29.498Z,74.77
2022-10-18T23:13:57.654Z,74.71
2022-10-18T23:16:25.884Z,74.72
2022-10-18T23:18:55.098Z,74.62
2022-10-18T23:21:24.537Z,74.73
2022-10-18T23:23:53.238Z,74.78
2022-10-18T23:26:23.190Z,74.88
2022-10-18T23:28:52.395Z,74.84
2022-10-18T23:31:22.055Z,74.67
2022-10-18T23:33:51.334Z,74.56
2022-10-18T23:36:19.722Z,74.48
2022-10-18T23:38:47.813Z,74.34
2022-10-18T23:41:16.646Z,74.17
2022-10-18T23:43:45.278Z,74.25
2022-10-18T23:46:14.138Z,74.25
2022-10-18T23:48:42.275Z,74.12
2022-10-18T23:51:10.682Z,74.27
2022-10-18T23:53:39.126Z,74.04
2022-10-18T23:56:08.763Z,74.01
2022-10-18T23:58:37.874Z,73.96
